sensor_id;sensor_type;location;lat;lon;timestamp;temperature;humidity
36660;DHT22;22654;51.054;3.654;2023-07-31T00:01:26;17.30;99.90
36660;DHT22;22654;51.054;3.654;2023-07-31T00:03:52;17.30;99.90
36660;DHT22;22654;51.054;3.654;2023-07-31T00:15:06;17.40;99.90
36660;DHT22;22654;51.054;3.654;2023-07-31T00:17:32;17.40;99.90
36660;DHT22;22654;51.054;3.654;2023-07-31T00:19:58;17.30;99.90
36660;DHT22;22654;51.054;3.654;2023-07-31T00:22:24;17.30;99.90
36660;DHT22;22654;51.054;3.654;2023-07-31T00:24:49;17.40;99.90
36660;DHT22;22654;51.054;3.654;2023-07-31T00:27:15;17.40;99.90
36660;DHT22;22654;51.054;3.654;2023-07-31T00:29:43;17.40;99.90
36660;DHT22;22654;51.054;3.654;2023-07-31T00:32:09;17.40;99.90
36660;DHT22;22654;51.054;3.654;2023-07-31T00:34:37;17.40;99.90
36660;DHT22;22654;51.054;3.654;2023-07-31T00:37:03;17.40;99.90
36660;DHT22;22654;51.054;3.654;2023-07-31T00:39:30;17.40;99.90
36660;DHT22;22654;51.054;3.654;2023-07-31T00:41:56;17.50;99.90
36660;DHT22;22654;51.054;3.654;2023-07-31T00:44:22;17.40;99.90
36660;DHT22;22654;51.054;3.654;2023-07-31T00:46:48;17.40;99.90
36660;DHT22;22654;51.054;3.654;2023-07-31T00:49:15;17.40;99.90
36660;DHT22;22654;51.054;3.654;2023-07-31T00:51:41;17.50;99.90
36660;DHT22;22654;51.054;3.654;2023-07-31T00:54:07;17.50;99.90
36660;DHT22;22654;51.054;3.654;2023-07-31T00:56:33;17.50;99.90
36660;DHT22;22654;51.054;3.654;2023-07-31T00:59:01;17.50;99.90
36660;DHT22;22654;51.054;3.654;2023-07-31T01:01:27;17.50;99.90
36660;DHT22;22654;51.054;3.654;2023-07-31T01:03:53;17.50;99.90
36660;DHT22;22654;51.054;3.654;2023-07-31T01:09:20;17.60;99.90
36660;DHT22;22654;51.054;3.654;2023-07-31T01:11:56;17.60;99.90
36660;DHT22;22654;51.054;3.654;2023-07-31T01:14:22;17.60;99.90
36660;DHT22;22654;51.054;3.654;2023-07-31T01:16:48;17.60;99.90
36660;DHT22;22654;51.054;3.654;2023-07-31T01:19:15;17.60;99.90
36660;DHT22;22654;51.054;3.654;2023-07-31T01:24:34;17.50;99.90
36660;DHT22;22654;51.054;3.654;2023-07-31T01:27:06;17.60;99.90
36660;DHT22;22654;51.054;3.654;2023-07-31T01:29:52;17.70;99.90
36660;DHT22;22654;51.054;3.654;2023-07-31T01:32:22;17.60;99.90
36660;DHT22;22654;51.054;3.654;2023-07-31T01:34:49;17.60;99.90
36660;DHT22;22654;51.054;3.654;2023-07-31T01:37:16;17.60;99.90
36660;DHT22;22654;51.054;3.654;2023-07-31T01:39:42;17.60;99.90
36660;DHT22;22654;51.054;3.654;2023-07-31T01:42:08;17.60;99.90
36660;DHT22;22654;51.054;3.654;2023-07-31T01:44:34;17.70;99.90
36660;DHT22;22654;51.054;3.654;2023-07-31T01:47:00;17.60;99.90
36660;DHT22;22654;51.054;3.654;2023-07-31T01:49:26;17.70;99.90
36660;DHT22;22654;51.054;3.654;2023-07-31T01:51:52;17.60;99.90
36660;DHT22;22654;51.054;3.654;2023-07-31T01:54:18;17.70;99.90
36660;DHT22;22654;51.054;3.654;2023-07-31T01:56:43;17.70;99.90
36660;DHT22;22654;51.054;3.654;2023-07-31T01:59:09;17.60;99.90
36660;DHT22;22654;51.054;3.654;2023-07-31T02:01:35;17.70;99.90
36660;DHT22;22654;51.054;3.654;2023-07-31T02:04:01;17.60;99.90
36660;DHT22;22654;51.054;3.654;2023-07-31T02:06:27;17.60;99.90
36660;DHT22;22654;51.054;3.654;2023-07-31T02:08:53;17.60;99.90
36660;DHT22;22654;51.054;3.654;2023-07-31T02:11:18;17.70;99.90
36660;DHT22;22654;51.054;3.654;2023-07-31T02:13:49;17.80;99.90
36660;DHT22;22654;51.054;3.654;2023-07-31T02:16:14;17.70;99.90
36660;DHT22;22654;51.054;3.654;2023-07-31T02:18:40;17.70;99.90
36660;DHT22;22654;51.054;3.654;2023-07-31T02:21:06;17.70;99.90
36660;DHT22;22654;51.054;3.654;2023-07-31T02:23:32;17.70;99.90
36660;DHT22;22654;51.054;3.654;2023-07-31T02:25:58;17.70;99.90
36660;DHT22;22654;51.054;3.654;2023-07-31T02:28:24;17.70;99.90
36660;DHT22;22654;51.054;3.654;2023-07-31T02:30:51;17.80;99.90
36660;DHT22;22654;51.054;3.654;2023-07-31T02:33:17;17.70;99.90
36660;DHT22;22654;51.054;3.654;2023-07-31T02:35:43;17.80;99.90
36660;DHT22;22654;51.054;3.654;2023-07-31T02:38:09;17.80;99.90
36660;DHT22;22654;51.054;3.654;2023-07-31T02:40:35;17.80;99.90
36660;DHT22;22654;51.054;3.654;2023-07-31T02:43:00;17.90;99.90
36660;DHT22;22654;51.054;3.654;2023-07-31T02:45:26;17.90;99.90
36660;DHT22;22654;51.054;3.654;2023-07-31T02:47:52;18.00;99.90
36660;DHT22;22654;51.054;3.654;2023-07-31T02:50:18;18.00;99.90
36660;DHT22;22654;51.054;3.654;2023-07-31T02:52:44;18.00;99.90
36660;DHT22;22654;51.054;3.654;2023-07-31T02:55:10;18.00;99.90
36660;DHT22;22654;51.054;3.654;2023-07-31T02:57:38;17.90;99.90
36660;DHT22;22654;51.054;3.654;2023-07-31T03:00:05;18.00;99.90
36660;DHT22;22654;51.054;3.654;2023-07-31T03:02:32;18.00;99.90
36660;DHT22;22654;51.054;3.654;2023-07-31T03:04:58;18.00;99.90
36660;DHT22;22654;51.054;3.654;2023-07-31T03:07:24;17.90;99.90
36660;DHT22;22654;51.054;3.654;2023-07-31T03:09:50;17.90;99.90
36660;DHT22;22654;51.054;3.654;2023-07-31T03:12:15;17.80;99.90
36660;DHT22;22654;51.054;3.654;2023-07-31T03:14:41;17.90;99.90
36660;DHT22;22654;51.054;3.654;2023-07-31T03:17:08;17.90;99.90
36660;DHT22;22654;51.054;3.654;2023-07-31T03:24:51;17.60;99.90
36660;DHT22;22654;51.054;3.654;2023-07-31T03:27:17;17.60;99.90
36660;DHT22;22654;51.054;3.654;2023-07-31T03:29:43;17.70;99.90
36660;DHT22;22654;51.054;3.654;2023-07-31T03:32:09;17.50;99.90
36660;DHT22;22654;51.054;3.654;2023-07-31T03:34:35;17.40;99.90
36660;DHT22;22654;51.054;3.654;2023-07-31T03:37:01;17.40;99.90
36660;DHT22;22654;51.054;3.654;2023-07-31T03:39:27;17.40;99.90
36660;DHT22;22654;51.054;3.654;2023-07-31T03:41:53;17.20;99.90
36660;DHT22;22654;51.054;3.654;2023-07-31T03:44:19;17.20;99.90
36660;DHT22;22654;51.054;3.654;2023-07-31T03:46:45;17.20;99.90
36660;DHT22;22654;51.054;3.654;2023-07-31T03:49:11;17.20;99.90
36660;DHT22;22654;51.054;3.654;2023-07-31T03:51:37;17.30;99.90
36660;DHT22;22654;51.054;3.654;2023-07-31T03:54:03;17.20;99.90
36660;DHT22;22654;51.054;3.654;2023-07-31T03:56:28;17.00;99.90
36660;DHT22;22654;51.054;3.654;2023-07-31T03:58:54;17.20;99.90
36660;DHT22;22654;51.054;3.654;2023-07-31T04:01:20;17.20;99.90
36660;DHT22;22654;51.054;3.654;2023-07-31T04:03:46;17.10;99.90
36660;DHT22;22654;51.054;3.654;2023-07-31T04:06:12;17.00;99.90
36660;DHT22;22654;51.054;3.654;2023-07-31T04:08:37;17.00;99.90
36660;DHT22;22654;51.054;3.654;2023-07-31T04:11:03;17.20;99.90
36660;DHT22;22654;51.054;3.654;2023-07-31T04:13:30;17.20;99.90
36660;DHT22;22654;51.054;3.654;2023-07-31T04:15:55;17.30;99.90
36660;DHT22;22654;51.054;3.654;2023-07-31T04:18:22;17.20;99.90
36660;DHT22;22654;51.054;3.654;2023-07-31T04:20:47;17.20;99.90
36660;DHT22;22654;51.054;3.654;2023-07-31T04:23:13;17.20;99.90
36660;DHT22;22654;51.054;3.654;2023-07-31T04:25:39;17.20;99.90
36660;DHT22;22654;51.054;3.654;2023-07-31T04:28:05;17.30;99.90
36660;DHT22;22654;51.054;3.654;2023-07-31T04:30:31;17.20;99.90
36660;DHT22;22654;51.054;3.654;2023-07-31T04:32:57;17.20;99.90
36660;DHT22;22654;51.054;3.654;2023-07-31T04:35:22;17.10;99.90
36660;DHT22;22654;51.054;3.654;2023-07-31T04:37:48;17.20;99.90
36660;DHT22;22654;51.054;3.654;2023-07-31T04:40:16;17.20;99.90
36660;DHT22;22654;51.054;3.654;2023-07-31T04:42:42;17.20;99.90
36660;DHT22;22654;51.054;3.654;2023-07-31T04:45:09;17.20;99.90
36660;DHT22;22654;51.054;3.654;2023-07-31T04:47:34;17.20;99.90
36660;DHT22;22654;51.054;3.654;2023-07-31T04:50:00;17.10;99.90
36660;DHT22;22654;51.054;3.654;2023-07-31T04:52:26;17.10;99.90
36660;DHT22;22654;51.054;3.654;2023-07-31T04:54:52;17.10;99.90
36660;DHT22;22654;51.054;3.654;2023-07-31T04:57:18;17.10;99.90
36660;DHT22;22654;51.054;3.654;2023-07-31T04:59:43;17.20;99.90
36660;DHT22;22654;51.054;3.654;2023-07-31T05:02:12;17.10;99.90
36660;DHT22;22654;51.054;3.654;2023-07-31T05:04:38;17.10;99.90
36660;DHT22;22654;51.054;3.654;2023-07-31T05:07:04;17.10;99.90
36660;DHT22;22654;51.054;3.654;2023-07-31T05:09:30;17.10;99.90
36660;DHT22;22654;51.054;3.654;2023-07-31T05:11:56;17.10;99.90
36660;DHT22;22654;51.054;3.654;2023-07-31T05:14:22;17.10;99.90
36660;DHT22;22654;51.054;3.654;2023-07-31T05:16:48;17.10;99.90
36660;DHT22;22654;51.054;3.654;2023-07-31T05:19:16;17.20;99.90
36660;DHT22;22654;51.054;3.654;2023-07-31T05:21:42;17.30;99.90
36660;DHT22;22654;51.054;3.654;2023-07-31T05:24:10;17.30;99.90
36660;DHT22;22654;51.054;3.654;2023-07-31T05:26:36;17.30;99.90
36660;DHT22;22654;51.054;3.654;2023-07-31T05:29:03;17.30;99.90
36660;DHT22;22654;51.054;3.654;2023-07-31T05:31:29;17.30;99.90
36660;DHT22;22654;51.054;3.654;2023-07-31T05:33:55;17.40;99.90
36660;DHT22;22654;51.054;3.654;2023-07-31T05:36:21;17.40;99.90
36660;DHT22;22654;51.054;3.654;2023-07-31T05:38:46;17.40;99.90
36660;DHT22;22654;51.054;3.654;2023-07-31T05:41:13;17.50;99.90
36660;DHT22;22654;51.054;3.654;2023-07-31T05:43:39;17.50;99.90
36660;DHT22;22654;51.054;3.654;2023-07-31T05:46:04;17.40;99.90
36660;DHT22;22654;51.054;3.654;2023-07-31T05:48:32;17.50;99.90
36660;DHT22;22654;51.054;3.654;2023-07-31T05:51:00;17.50;99.90
36660;DHT22;22654;51.054;3.654;2023-07-31T05:53:25;17.50;99.90
36660;DHT22;22654;51.054;3.654;2023-07-31T05:55:51;17.50;99.90
36660;DHT22;22654;51.054;3.654;2023-07-31T05:58:17;17.50;99.90
36660;DHT22;22654;51.054;3.654;2023-07-31T06:00:43;17.50;99.90
36660;DHT22;22654;51.054;3.654;2023-07-31T06:03:09;17.60;99.90
36660;DHT22;22654;51.054;3.654;2023-07-31T06:05:34;17.60;99.90
36660;DHT22;22654;51.054;3.654;2023-07-31T06:08:01;17.70;99.90
36660;DHT22;22654;51.054;3.654;2023-07-31T06:10:30;17.80;99.90
36660;DHT22;22654;51.054;3.654;2023-07-31T06:12:55;17.80;99.90
36660;DHT22;22654;51.054;3.654;2023-07-31T06:15:22;17.80;99.90
36660;DHT22;22654;51.054;3.654;2023-07-31T06:17:48;17.90;99.90
36660;DHT22;22654;51.054;3.654;2023-07-31T06:20:14;17.80;99.90
36660;DHT22;22654;51.054;3.654;2023-07-31T06:22:40;17.90;99.90
36660;DHT22;22654;51.054;3.654;2023-07-31T06:25:07;17.80;99.90
36660;DHT22;22654;51.054;3.654;2023-07-31T06:27:33;17.90;99.90
36660;DHT22;22654;51.054;3.654;2023-07-31T06:29:59;17.90;99.90
36660;DHT22;22654;51.054;3.654;2023-07-31T06:32:25;18.00;99.90
36660;DHT22;22654;51.054;3.654;2023-07-31T06:34:54;18.10;99.90
36660;DHT22;22654;51.054;3.654;2023-07-31T06:37:20;18.20;99.90
36660;DHT22;22654;51.054;3.654;2023-07-31T06:39:45;18.20;99.90
36660;DHT22;22654;51.054;3.654;2023-07-31T06:42:11;18.10;99.90
36660;DHT22;22654;51.054;3.654;2023-07-31T06:44:37;18.20;99.90
36660;DHT22;22654;51.054;3.654;2023-07-31T06:47:03;18.20;99.90
36660;DHT22;22654;51.054;3.654;2023-07-31T06:49:29;18.30;99.90
36660;DHT22;22654;51.054;3.654;2023-07-31T06:51:55;18.20;99.90
36660;DHT22;22654;51.054;3.654;2023-07-31T06:54:21;18.10;99.90
36660;DHT22;22654;51.054;3.654;2023-07-31T06:56:46;18.10;99.90
36660;DHT22;22654;51.054;3.654;2023-07-31T06:59:12;18.30;99.90
36660;DHT22;22654;51.054;3.654;2023-07-31T07:01:38;18.50;99.90
36660;DHT22;22654;51.054;3.654;2023-07-31T07:04:04;18.50;99.90
36660;DHT22;22654;51.054;3.654;2023-07-31T07:06:30;18.60;99.90
36660;DHT22;22654;51.054;3.654;2023-07-31T07:08:55;18.60;99.90
36660;DHT22;22654;51.054;3.654;2023-07-31T07:11:21;18.60;99.90
36660;DHT22;22654;51.054;3.654;2023-07-31T07:13:47;18.60;99.90
36660;DHT22;22654;51.054;3.654;2023-07-31T07:16:13;18.70;99.90
36660;DHT22;22654;51.054;3.654;2023-07-31T07:18:38;18.70;99.90
36660;DHT22;22654;51.054;3.654;2023-07-31T07:21:05;18.80;99.90
36660;DHT22;22654;51.054;3.654;2023-07-31T07:23:30;19.10;99.90
36660;DHT22;22654;51.054;3.654;2023-07-31T07:25:56;19.20;99.90
36660;DHT22;22654;51.054;3.654;2023-07-31T07:28:22;19.40;99.90
36660;DHT22;22654;51.054;3.654;2023-07-31T07:30:52;19.50;99.90
36660;DHT22;22654;51.054;3.654;2023-07-31T07:33:19;19.50;99.90
36660;DHT22;22654;51.054;3.654;2023-07-31T07:35:45;19.20;99.90
36660;DHT22;22654;51.054;3.654;2023-07-31T07:38:10;19.20;99.90
36660;DHT22;22654;51.054;3.654;2023-07-31T07:40:39;19.30;99.90
36660;DHT22;22654;51.054;3.654;2023-07-31T07:43:05;19.60;99.90
36660;DHT22;22654;51.054;3.654;2023-07-31T07:45:31;19.60;99.90
36660;DHT22;22654;51.054;3.654;2023-07-31T07:47:57;19.70;99.90
36660;DHT22;22654;51.054;3.654;2023-07-31T07:50:24;19.90;99.90
36660;DHT22;22654;51.054;3.654;2023-07-31T07:52:50;19.80;99.90
36660;DHT22;22654;51.054;3.654;2023-07-31T07:55:16;19.70;99.90
36660;DHT22;22654;51.054;3.654;2023-07-31T07:57:42;19.90;99.90
36660;DHT22;22654;51.054;3.654;2023-07-31T08:00:10;20.20;99.90
36660;DHT22;22654;51.054;3.654;2023-07-31T08:02:42;20.40;99.90
36660;DHT22;22654;51.054;3.654;2023-07-31T08:05:08;20.50;99.90
36660;DHT22;22654;51.054;3.654;2023-07-31T08:07:34;20.30;99.90
36660;DHT22;22654;51.054;3.654;2023-07-31T08:09:59;20.40;99.90
36660;DHT22;22654;51.054;3.654;2023-07-31T08:12:25;20.60;99.90
36660;DHT22;22654;51.054;3.654;2023-07-31T08:14:51;20.50;99.90
36660;DHT22;22654;51.054;3.654;2023-07-31T08:17:17;20.10;99.90
36660;DHT22;22654;51.054;3.654;2023-07-31T08:19:43;20.10;99.90
36660;DHT22;22654;51.054;3.654;2023-07-31T08:22:09;20.30;99.90
36660;DHT22;22654;51.054;3.654;2023-07-31T08:24:35;20.40;99.90
36660;DHT22;22654;51.054;3.654;2023-07-31T08:27:01;20.30;99.90
36660;DHT22;22654;51.054;3.654;2023-07-31T08:29:29;20.30;99.90
36660;DHT22;22654;51.054;3.654;2023-07-31T08:31:55;20.20;99.90
36660;DHT22;22654;51.054;3.654;2023-07-31T08:34:20;20.20;99.90
36660;DHT22;22654;51.054;3.654;2023-07-31T08:36:46;20.40;99.90
36660;DHT22;22654;51.054;3.654;2023-07-31T08:39:12;20.70;99.90
36660;DHT22;22654;51.054;3.654;2023-07-31T08:41:41;20.90;99.90
36660;DHT22;22654;51.054;3.654;2023-07-31T08:44:07;21.40;99.90
36660;DHT22;22654;51.054;3.654;2023-07-31T08:46:33;21.60;99.90
36660;DHT22;22654;51.054;3.654;2023-07-31T08:49:01;21.30;99.90
36660;DHT22;22654;51.054;3.654;2023-07-31T08:51:28;21.10;99.90
36660;DHT22;22654;51.054;3.654;2023-07-31T08:53:55;21.00;99.90
36660;DHT22;22654;51.054;3.654;2023-07-31T08:56:23;20.90;99.90
36660;DHT22;22654;51.054;3.654;2023-07-31T08:58:49;21.00;99.90
36660;DHT22;22654;51.054;3.654;2023-07-31T09:01:17;20.90;99.90
36660;DHT22;22654;51.054;3.654;2023-07-31T09:03:44;20.70;99.90
36660;DHT22;22654;51.054;3.654;2023-07-31T09:06:10;20.50;99.90
36660;DHT22;22654;51.054;3.654;2023-07-31T09:08:41;20.60;99.90
36660;DHT22;22654;51.054;3.654;2023-07-31T09:11:07;20.60;99.90
36660;DHT22;22654;51.054;3.654;2023-07-31T09:13:33;20.70;99.90
36660;DHT22;22654;51.054;3.654;2023-07-31T09:15:59;20.90;99.90
36660;DHT22;22654;51.054;3.654;2023-07-31T09:18:25;20.90;99.90
36660;DHT22;22654;51.054;3.654;2023-07-31T09:21:06;20.80;99.90
36660;DHT22;22654;51.054;3.654;2023-07-31T09:23:47;20.90;99.90
36660;DHT22;22654;51.054;3.654;2023-07-31T09:26:36;20.80;99.90
36660;DHT22;22654;51.054;3.654;2023-07-31T09:29:06;20.80;99.90
36660;DHT22;22654;51.054;3.654;2023-07-31T09:34:38;20.70;99.90
36660;DHT22;22654;51.054;3.654;2023-07-31T09:37:05;20.80;99.90
36660;DHT22;22654;51.054;3.654;2023-07-31T09:39:31;20.60;99.90
36660;DHT22;22654;51.054;3.654;2023-07-31T09:41:56;20.60;99.90
36660;DHT22;22654;51.054;3.654;2023-07-31T09:44:38;20.70;99.90
36660;DHT22;22654;51.054;3.654;2023-07-31T09:47:22;20.80;99.90
36660;DHT22;22654;51.054;3.654;2023-07-31T09:49:51;20.90;99.90
36660;DHT22;22654;51.054;3.654;2023-07-31T09:52:17;21.00;99.90
36660;DHT22;22654;51.054;3.654;2023-07-31T09:54:42;21.20;99.90
36660;DHT22;22654;51.054;3.654;2023-07-31T09:57:09;21.30;99.90
36660;DHT22;22654;51.054;3.654;2023-07-31T09:59:36;21.50;99.90
36660;DHT22;22654;51.054;3.654;2023-07-31T10:02:02;21.80;99.90
36660;DHT22;22654;51.054;3.654;2023-07-31T10:04:28;22.10;99.90
36660;DHT22;22654;51.054;3.654;2023-07-31T10:06:55;22.10;99.90
36660;DHT22;22654;51.054;3.654;2023-07-31T10:09:24;22.10;99.90
36660;DHT22;22654;51.054;3.654;2023-07-31T10:11:56;21.90;99.90
36660;DHT22;22654;51.054;3.654;2023-07-31T10:14:24;21.70;99.90
36660;DHT22;22654;51.054;3.654;2023-07-31T10:16:52;21.30;99.90
36660;DHT22;22654;51.054;3.654;2023-07-31T10:19:20;21.10;99.90
36660;DHT22;22654;51.054;3.654;2023-07-31T10:21:47;21.10;99.90
36660;DHT22;22654;51.054;3.654;2023-07-31T10:24:15;21.00;99.90
36660;DHT22;22654;51.054;3.654;2023-07-31T10:26:45;21.20;99.90
36660;DHT22;22654;51.054;3.654;2023-07-31T10:29:12;21.10;99.90
36660;DHT22;22654;51.054;3.654;2023-07-31T10:31:38;21.30;99.90
36660;DHT22;22654;51.054;3.654;2023-07-31T10:34:04;21.40;99.90
36660;DHT22;22654;51.054;3.654;2023-07-31T10:36:30;21.40;99.90
36660;DHT22;22654;51.054;3.654;2023-07-31T10:38:56;21.40;99.90
36660;DHT22;22654;51.054;3.654;2023-07-31T10:41:31;21.50;99.90
36660;DHT22;22654;51.054;3.654;2023-07-31T10:43:59;21.60;99.90
36660;DHT22;22654;51.054;3.654;2023-07-31T10:46:25;21.90;99.90
36660;DHT22;22654;51.054;3.654;2023-07-31T10:49:00;22.40;99.90
36660;DHT22;22654;51.054;3.654;2023-07-31T10:51:35;22.40;99.90
36660;DHT22;22654;51.054;3.654;2023-07-31T10:54:12;22.30;99.90
36660;DHT22;22654;51.054;3.654;2023-07-31T10:56:38;22.10;99.90
36660;DHT22;22654;51.054;3.654;2023-07-31T10:59:05;21.80;99.90
36660;DHT22;22654;51.054;3.654;2023-07-31T11:04:22;21.70;99.90
36660;DHT22;22654;51.054;3.654;2023-07-31T11:07:00;21.80;99.90
36660;DHT22;22654;51.054;3.654;2023-07-31T11:09:31;21.60;99.90
36660;DHT22;22654;51.054;3.654;2023-07-31T11:11:59;21.80;99.90
36660;DHT22;22654;51.054;3.654;2023-07-31T11:14:25;22.00;99.90
36660;DHT22;22654;51.054;3.654;2023-07-31T11:16:51;22.30;99.90
36660;DHT22;22654;51.054;3.654;2023-07-31T11:19:25;22.50;99.90
36660;DHT22;22654;51.054;3.654;2023-07-31T11:21:54;22.30;99.90
36660;DHT22;22654;51.054;3.654;2023-07-31T11:24:21;22.10;99.90
36660;DHT22;22654;51.054;3.654;2023-07-31T11:26:53;22.00;99.90
36660;DHT22;22654;51.054;3.654;2023-07-31T11:29:20;22.10;99.90
36660;DHT22;22654;51.054;3.654;2023-07-31T11:31:47;22.20;99.90
36660;DHT22;22654;51.054;3.654;2023-07-31T11:34:14;22.20;99.90
36660;DHT22;22654;51.054;3.654;2023-07-31T11:36:40;22.10;99.90
36660;DHT22;22654;51.054;3.654;2023-07-31T11:39:08;22.30;99.90
36660;DHT22;22654;51.054;3.654;2023-07-31T11:41:34;22.40;99.90
36660;DHT22;22654;51.054;3.654;2023-07-31T11:44:00;22.60;99.90
36660;DHT22;22654;51.054;3.654;2023-07-31T11:46:28;22.70;99.90
36660;DHT22;22654;51.054;3.654;2023-07-31T11:49:00;23.00;99.90
36660;DHT22;22654;51.054;3.654;2023-07-31T11:51:26;23.10;99.90
36660;DHT22;22654;51.054;3.654;2023-07-31T11:53:57;23.20;99.90
36660;DHT22;22654;51.054;3.654;2023-07-31T11:56:24;23.20;99.90
36660;DHT22;22654;51.054;3.654;2023-07-31T11:58:53;23.20;99.90
36660;DHT22;22654;51.054;3.654;2023-07-31T12:01:21;23.00;99.90
36660;DHT22;22654;51.054;3.654;2023-07-31T12:03:48;22.90;99.90
36660;DHT22;22654;51.054;3.654;2023-07-31T12:06:14;23.00;99.90
36660;DHT22;22654;51.054;3.654;2023-07-31T12:08:40;22.80;99.90
36660;DHT22;22654;51.054;3.654;2023-07-31T12:11:08;22.60;99.90
36660;DHT22;22654;51.054;3.654;2023-07-31T12:13:41;22.10;99.90
36660;DHT22;22654;51.054;3.654;2023-07-31T12:16:07;21.80;99.90
36660;DHT22;22654;51.054;3.654;2023-07-31T12:18:37;21.80;99.90
36660;DHT22;22654;51.054;3.654;2023-07-31T12:21:06;21.70;99.90
36660;DHT22;22654;51.054;3.654;2023-07-31T12:23:35;21.60;99.90
36660;DHT22;22654;51.054;3.654;2023-07-31T12:28:30;21.30;99.90
36660;DHT22;22654;51.054;3.654;2023-07-31T12:31:00;21.10;99.90
36660;DHT22;22654;51.054;3.654;2023-07-31T12:33:33;20.90;99.90
36660;DHT22;22654;51.054;3.654;2023-07-31T12:36:01;20.60;99.90
36660;DHT22;22654;51.054;3.654;2023-07-31T12:38:31;20.60;99.90
36660;DHT22;22654;51.054;3.654;2023-07-31T12:40:57;20.40;99.90
36660;DHT22;22654;51.054;3.654;2023-07-31T12:43:23;20.20;99.90
36660;DHT22;22654;51.054;3.654;2023-07-31T12:45:49;20.20;99.90
36660;DHT22;22654;51.054;3.654;2023-07-31T12:48:15;20.10;99.90
36660;DHT22;22654;51.054;3.654;2023-07-31T12:50:41;19.90;99.90
36660;DHT22;22654;51.054;3.654;2023-07-31T12:53:06;19.70;99.90
36660;DHT22;22654;51.054;3.654;2023-07-31T12:55:33;19.70;99.90
36660;DHT22;22654;51.054;3.654;2023-07-31T12:58:00;19.60;99.90
36660;DHT22;22654;51.054;3.654;2023-07-31T13:00:30;19.70;99.90
36660;DHT22;22654;51.054;3.654;2023-07-31T13:02:55;19.70;99.90
36660;DHT22;22654;51.054;3.654;2023-07-31T13:05:22;19.60;99.90
36660;DHT22;22654;51.054;3.654;2023-07-31T13:07:48;19.60;99.90
36660;DHT22;22654;51.054;3.654;2023-07-31T13:10:14;19.60;99.90
36660;DHT22;22654;51.054;3.654;2023-07-31T13:12:40;19.60;99.90
36660;DHT22;22654;51.054;3.654;2023-07-31T13:15:07;19.50;99.90
36660;DHT22;22654;51.054;3.654;2023-07-31T13:17:33;19.40;99.90
36660;DHT22;22654;51.054;3.654;2023-07-31T13:19:59;19.30;99.90
36660;DHT22;22654;51.054;3.654;2023-07-31T13:22:25;19.40;99.90
36660;DHT22;22654;51.054;3.654;2023-07-31T13:24:51;19.30;99.90
36660;DHT22;22654;51.054;3.654;2023-07-31T13:27:17;19.20;99.90
36660;DHT22;22654;51.054;3.654;2023-07-31T13:29:45;19.10;99.90
36660;DHT22;22654;51.054;3.654;2023-07-31T13:32:11;19.10;99.90
36660;DHT22;22654;51.054;3.654;2023-07-31T13:34:37;19.00;99.90
36660;DHT22;22654;51.054;3.654;2023-07-31T13:37:03;18.90;99.90
36660;DHT22;22654;51.054;3.654;2023-07-31T13:39:29;18.90;99.90
36660;DHT22;22654;51.054;3.654;2023-07-31T13:41:55;18.80;99.90
36660;DHT22;22654;51.054;3.654;2023-07-31T13:44:21;18.80;99.90
36660;DHT22;22654;51.054;3.654;2023-07-31T13:46:46;19.00;99.90
36660;DHT22;22654;51.054;3.654;2023-07-31T13:49:12;19.10;99.90
36660;DHT22;22654;51.054;3.654;2023-07-31T13:51:38;19.00;99.90
36660;DHT22;22654;51.054;3.654;2023-07-31T13:54:05;19.10;99.90
36660;DHT22;22654;51.054;3.654;2023-07-31T13:56:32;19.00;99.90
36660;DHT22;22654;51.054;3.654;2023-07-31T13:59:01;18.90;99.90
36660;DHT22;22654;51.054;3.654;2023-07-31T14:01:27;18.90;99.90
36660;DHT22;22654;51.054;3.654;2023-07-31T14:03:53;18.90;99.90
36660;DHT22;22654;51.054;3.654;2023-07-31T14:06:19;18.90;99.90
36660;DHT22;22654;51.054;3.654;2023-07-31T14:08:45;18.90;99.90
36660;DHT22;22654;51.054;3.654;2023-07-31T14:11:11;18.90;99.90
36660;DHT22;22654;51.054;3.654;2023-07-31T14:13:37;18.90;99.90
36660;DHT22;22654;51.054;3.654;2023-07-31T14:16:03;18.90;99.90
36660;DHT22;22654;51.054;3.654;2023-07-31T14:18:28;19.00;99.90
36660;DHT22;22654;51.054;3.654;2023-07-31T14:20:54;19.00;99.90
36660;DHT22;22654;51.054;3.654;2023-07-31T14:23:20;19.10;99.90
36660;DHT22;22654;51.054;3.654;2023-07-31T14:25:47;19.20;99.90
36660;DHT22;22654;51.054;3.654;2023-07-31T14:28:13;19.20;99.90
36660;DHT22;22654;51.054;3.654;2023-07-31T14:30:39;19.10;99.90
36660;DHT22;22654;51.054;3.654;2023-07-31T14:33:05;18.90;99.90
36660;DHT22;22654;51.054;3.654;2023-07-31T14:35:31;18.90;99.90
36660;DHT22;22654;51.054;3.654;2023-07-31T14:37:59;18.80;99.90
36660;DHT22;22654;51.054;3.654;2023-07-31T14:40:25;18.70;99.90
36660;DHT22;22654;51.054;3.654;2023-07-31T14:42:51;18.80;99.90
36660;DHT22;22654;51.054;3.654;2023-07-31T14:45:16;18.90;99.90
36660;DHT22;22654;51.054;3.654;2023-07-31T14:47:42;19.10;99.90
36660;DHT22;22654;51.054;3.654;2023-07-31T14:50:08;19.10;99.90
36660;DHT22;22654;51.054;3.654;2023-07-31T14:52:34;19.10;99.90
36660;DHT22;22654;51.054;3.654;2023-07-31T14:55:00;19.00;99.90
36660;DHT22;22654;51.054;3.654;2023-07-31T14:57:26;18.90;99.90
36660;DHT22;22654;51.054;3.654;2023-07-31T14:59:52;19.00;99.90
36660;DHT22;22654;51.054;3.654;2023-07-31T15:02:18;19.20;99.90
36660;DHT22;22654;51.054;3.654;2023-07-31T15:04:44;19.10;99.90
36660;DHT22;22654;51.054;3.654;2023-07-31T15:07:09;19.10;99.90
36660;DHT22;22654;51.054;3.654;2023-07-31T15:09:35;19.10;99.90
36660;DHT22;22654;51.054;3.654;2023-07-31T15:12:01;19.00;99.90
36660;DHT22;22654;51.054;3.654;2023-07-31T15:14:27;19.10;99.90
36660;DHT22;22654;51.054;3.654;2023-07-31T15:16:54;19.00;99.90
36660;DHT22;22654;51.054;3.654;2023-07-31T15:19:19;19.10;99.90
36660;DHT22;22654;51.054;3.654;2023-07-31T15:21:45;19.00;99.90
36660;DHT22;22654;51.054;3.654;2023-07-31T15:24:11;19.00;99.90
36660;DHT22;22654;51.054;3.654;2023-07-31T15:26:37;18.90;99.90
36660;DHT22;22654;51.054;3.654;2023-07-31T15:29:05;18.90;99.90
36660;DHT22;22654;51.054;3.654;2023-07-31T15:31:35;19.00;99.90
36660;DHT22;22654;51.054;3.654;2023-07-31T15:34:01;19.00;99.90
36660;DHT22;22654;51.054;3.654;2023-07-31T15:36:27;19.00;99.90
36660;DHT22;22654;51.054;3.654;2023-07-31T15:38:52;19.20;99.90
36660;DHT22;22654;51.054;3.654;2023-07-31T15:41:18;19.20;99.90
36660;DHT22;22654;51.054;3.654;2023-07-31T15:43:45;19.20;99.90
36660;DHT22;22654;51.054;3.654;2023-07-31T15:46:11;19.30;99.90
36660;DHT22;22654;51.054;3.654;2023-07-31T15:48:37;19.30;99.90
36660;DHT22;22654;51.054;3.654;2023-07-31T15:51:03;19.30;99.90
36660;DHT22;22654;51.054;3.654;2023-07-31T15:53:30;19.20;99.90
36660;DHT22;22654;51.054;3.654;2023-07-31T15:55:56;19.00;99.90